createdAt,value
2022-10-21T00:00:51.449Z,14.10
2022-10-21T00:03:19.048Z,14.10
2022-10-21T00:05:46.645Z,14.10
2022-10-21T00:08:13.923Z,14.10
2022-10-21T00:10:40.659Z,14.10
2022-10-21T00:13:07.614Z,14.00
2022-10-21T00:15:34.317Z,14.00
2022-10-21T00:20:28.080Z,13.90
2022-10-21T00:22:54.795Z,13.80
2022-10-21T00:25:21.509Z,13.80
2022-10-21T00:27:48.142Z,13.70
2022-10-21T00:30:15.830Z,13.70
2022-10-21T00:35:09.594Z,13.70
2022-10-21T00:37:36.596Z,13.70
2022-10-21T00:40:03.918Z,13.60
2022-10-21T00:42:39.637Z,13.60
2022-10-21T00:45:08.789Z,13.60
2022-10-21T00:50:27.078Z,13.50
2022-10-21T00:52:56.123Z,13.40
2022-10-21T00:55:24.004Z,13.40
2022-10-21T00:57:51.527Z,13.30
2022-10-21T01:00:18.666Z,13.30
2022-10-21T01:02:45.937Z,13.30
2022-10-21T01:05:13.456Z,13.30
2022-10-21T01:10:08.848Z,13.10
2022-10-21T01:13:08.010Z,13.10
2022-10-21T01:15:50.159Z,13.10
2022-10-21T01:18:58.122Z,13.10
2022-10-21T01:21:43.420Z,13.00
2022-10-21T01:24:28.685Z,13.00
2022-10-21T01:27:20.666Z,12.90
2022-10-21T01:30:02.478Z,12.80
2022-10-21T01:32:48.224Z,12.80
2022-10-21T01:35:26.545Z,12.80
2022-10-21T01:38:14.259Z,12.90
2022-10-21T01:40:56.600Z,12.90
2022-10-21T01:43:38.794Z,12.90
2022-10-21T01:46:27.556Z,12.90
2022-10-21T01:49:11.132Z,12.90
2022-10-21T01:54:13.848Z,13.00
2022-10-21T01:56:43.539Z,13.00
2022-10-21T01:59:13.547Z,13.00
2022-10-21T02:01:40.759Z,13.10
2022-10-21T02:04:09.736Z,13.10
2022-10-21T02:06:36.480Z,13.10
2022-10-21T02:09:03.447Z,13.20
2022-10-21T02:11:32.111Z,13.20
2022-10-21T02:14:08.281Z,13.20
2022-10-21T02:16:38.837Z,13.30
2022-10-21T02:19:13.491Z,13.30
2022-10-21T02:24:21.821Z,13.20
2022-10-21T02:26:48.636Z,13.20
2022-10-21T02:29:20.239Z,13.20
2022-10-21T02:31:58.599Z,13.20
2022-10-21T02:34:43.872Z,13.10
2022-10-21T02:37:19.325Z,13.10
2022-10-21T02:40:13.189Z,13.10
2022-10-21T02:43:03.178Z,13.10
2022-10-21T02:45:29.897Z,13.00
2022-10-21T02:47:56.569Z,13.10
2022-10-21T02:52:50.336Z,13.10
2022-10-21T02:57:44.343Z,13.10
2022-10-21T03:00:11.667Z,13.00
2022-10-21T03:05:05.877Z,13.00
2022-10-21T03:09:59.615Z,13.10
2022-10-21T03:14:53.330Z,13.00
2022-10-21T03:17:22.850Z,13.00
2022-10-21T03:19:51.868Z,13.00
2022-10-21T03:24:45.673Z,13.00
2022-10-21T03:29:39.387Z,13.00
2022-10-21T03:37:00.185Z,12.90
2022-10-21T03:39:26.853Z,12.90
2022-10-21T03:44:20.588Z,12.80
2022-10-21T03:46:47.213Z,12.90
2022-10-21T03:56:42.227Z,12.70
2022-10-21T03:59:09.006Z,12.70
2022-10-21T04:01:35.850Z,12.70
2022-10-21T04:06:29.658Z,12.80
2022-10-21T04:08:56.370Z,12.80
2022-10-21T04:13:50.147Z,12.90
2022-10-21T04:16:19.649Z,13.00
2022-10-21T04:21:13.670Z,13.00
2022-10-21T04:23:40.415Z,13.10
2022-10-21T04:28:35.269Z,13.20
2022-10-21T04:35:56.767Z,13.30
2022-10-21T04:38:23.594Z,13.30
2022-10-21T04:40:57.238Z,13.40
2022-10-21T04:45:51.095Z,13.40
2022-10-21T04:48:17.838Z,13.50
2022-10-21T04:53:11.543Z,13.40
2022-10-21T04:55:41.116Z,13.50
2022-10-21T05:03:02.140Z,13.50
2022-10-21T05:05:28.923Z,13.50
2022-10-21T05:07:55.586Z,13.60
2022-10-21T05:10:23.772Z,13.60
2022-10-21T05:12:50.519Z,13.60
2022-10-21T05:17:44.406Z,13.60
2022-10-21T05:27:32.932Z,13.70
2022-10-21T05:29:59.639Z,13.70
2022-10-21T05:32:26.449Z,13.70
2022-10-21T05:34:53.103Z,13.80
2022-10-21T05:37:19.798Z,13.80
2022-10-21T05:39:46.497Z,13.80
2022-10-21T05:42:13.218Z,13.70
2022-10-21T05:44:39.846Z,13.80
2022-10-21T05:49:33.646Z,13.80
2022-10-21T05:52:02.008Z,13.80
2022-10-21T05:56:56.651Z,13.90
2022-10-21T05:59:24.487Z,13.90
2022-10-21T06:04:18.178Z,14.00
2022-10-21T06:06:44.930Z,14.00
2022-10-21T06:09:11.651Z,14.00
2022-10-21T06:11:38.453Z,14.00
2022-10-21T06:16:35.164Z,14.00
2022-10-21T06:19:02.530Z,13.90
2022-10-21T06:21:29.187Z,13.90
2022-10-21T06:31:20.501Z,14.00
2022-10-21T06:33:47.543Z,14.10
2022-10-21T06:38:41.507Z,14.10
2022-10-21T06:41:13.107Z,14.10
2022-10-21T06:43:41.710Z,14.10
2022-10-21T06:46:11.040Z,14.10
2022-10-21T06:48:37.791Z,14.20
2022-10-21T06:51:10.593Z,14.20
2022-10-21T06:56:12.537Z,14.40
2022-10-21T06:58:43.334Z,14.40
2022-10-21T07:01:21.530Z,14.50
2022-10-21T07:03:58.769Z,14.50
2022-10-21T07:11:28.048Z,14.70
2022-10-21T07:13:55.239Z,14.70
2022-10-21T07:16:26.407Z,14.70
2022-10-21T07:21:22.022Z,14.80
2022-10-21T07:23:54.746Z,14.80
2022-10-21T07:26:24.880Z,14.70
2022-10-21T07:28:52.332Z,14.90
2022-10-21T07:31:21.467Z,15.00
2022-10-21T07:33:48.824Z,15.00
2022-10-21T07:36:24.799Z,15.00
2022-10-21T07:38:53.250Z,15.10
2022-10-21T07:41:23.898Z,15.00
2022-10-21T07:43:51.238Z,15.00
2022-10-21T07:46:20.812Z,15.00
2022-10-21T07:48:48.017Z,15.00
2022-10-21T07:51:17.225Z,15.10
2022-10-21T07:53:44.197Z,15.10
2022-10-21T07:56:24.725Z,15.20
2022-10-21T07:58:52.396Z,15.20
2022-10-21T08:01:20.194Z,15.20
2022-10-21T08:03:47.894Z,15.20
2022-10-21T08:06:17.473Z,15.20
2022-10-21T08:08:45.243Z,15.10
2022-10-21T08:11:12.477Z,15.10
2022-10-21T08:13:41.484Z,15.10
2022-10-21T08:21:04.237Z,15.10
2022-10-21T08:23:31.051Z,15.10
2022-10-21T08:26:00.748Z,15.10
2022-10-21T08:28:29.452Z,15.00
2022-10-21T08:31:06.664Z,15.00
2022-10-21T08:33:33.941Z,15.10
2022-10-21T08:36:09.088Z,15.10
2022-10-21T08:41:17.975Z,15.00
2022-10-21T08:43:44.786Z,15.00
2022-10-21T08:46:19.707Z,15.00
2022-10-21T08:48:53.313Z,15.00
2022-10-21T08:51:43.519Z,15.00
2022-10-21T08:54:19.263Z,14.90
2022-10-21T08:56:49.255Z,14.90
2022-10-21T08:59:21.463Z,14.90
2022-10-21T09:02:09.283Z,14.90
2022-10-21T09:05:12.921Z,14.90
2022-10-21T09:08:14.237Z,14.90
2022-10-21T09:10:52.854Z,14.90
2022-10-21T09:16:02.717Z,14.90
2022-10-21T09:18:32.374Z,14.90
2022-10-21T09:21:05.684Z,14.90
2022-10-21T09:24:06.881Z,14.90
2022-10-21T09:26:43.508Z,14.90
2022-10-21T09:29:28.165Z,14.90
2022-10-21T09:32:02.813Z,14.90
2022-10-21T09:34:57.875Z,14.90
2022-10-21T09:37:35.829Z,14.90
2022-10-21T09:40:19.860Z,14.90
2022-10-21T09:42:50.256Z,14.90
2022-10-21T09:45:34.991Z,14.90
2022-10-21T09:48:06.707Z,14.90
2022-10-21T09:50:34.987Z,15.00
2022-10-21T09:53:17.064Z,15.00
2022-10-21T09:55:47.417Z,15.00
2022-10-21T09:58:24.982Z,15.00
2022-10-21T10:00:51.864Z,15.10
2022-10-21T10:03:37.168Z,15.10
2022-10-21T10:06:05.565Z,15.20
2022-10-21T10:08:52.593Z,15.30
2022-10-21T10:11:21.764Z,15.40
2022-10-21T10:13:53.271Z,15.50
2022-10-21T10:16:24.642Z,15.60
2022-10-21T10:18:54.099Z,15.70
2022-10-21T10:21:22.327Z,15.70
2022-10-21T10:23:54.558Z,15.70
2022-10-21T10:26:27.956Z,15.80
2022-10-21T10:29:17.122Z,15.90
2022-10-21T10:31:50.966Z,16.00
2022-10-21T10:34:27.124Z,16.10
2022-10-21T10:37:06.076Z,16.10
2022-10-21T10:39:36.060Z,16.00
2022-10-21T10:42:03.792Z,16.00
2022-10-21T10:44:40.403Z,16.00
2022-10-21T10:47:18.056Z,16.00
2022-10-21T10:49:44.933Z,16.00
2022-10-21T10:54:40.250Z,16.00
2022-10-21T10:57:10.008Z,16.00
2022-10-21T10:59:44.807Z,16.00
2022-10-21T11:02:12.195Z,16.00
2022-10-21T11:04:58.247Z,16.00
2022-10-21T11:07:42.625Z,16.00
2022-10-21T11:10:35.979Z,16.00
2022-10-21T11:13:15.149Z,16.00
2022-10-21T11:16:00.209Z,16.00
2022-10-21T11:18:38.510Z,16.00
2022-10-21T11:21:33.100Z,16.10
2022-10-21T11:24:17.794Z,16.30
2022-10-21T11:30:17.688Z,16.50
2022-10-21T11:32:44.999Z,16.70
2022-10-21T11:35:39.251Z,16.90
2022-10-21T11:38:29.124Z,17.10
2022-10-21T11:41:01.536Z,17.30
2022-10-21T11:43:31.238Z,17.40
2022-10-21T11:46:27.090Z,17.50
2022-10-21T11:49:34.046Z,17.50
2022-10-21T11:52:33.961Z,17.60
2022-10-21T11:55:15.859Z,17.60
2022-10-21T11:57:51.710Z,17.60
2022-10-21T12:00:25.033Z,17.80
2022-10-21T12:03:28.951Z,17.90
2022-10-21T12:06:02.424Z,18.20
2022-10-21T12:08:43.141Z,18.40
2022-10-21T12:11:31.102Z,18.70
2022-10-21T12:14:06.710Z,18.80
2022-10-21T12:16:35.443Z,18.80
2022-10-21T12:19:06.941Z,18.80
2022-10-21T12:21:37.082Z,18.70
2022-10-21T12:24:15.648Z,18.70
2022-10-21T12:26:54.156Z,18.60
2022-10-21T12:29:42.772Z,18.60
2022-10-21T12:32:29.756Z,18.50
2022-10-21T12:34:56.518Z,18.40
2022-10-21T12:37:50.879Z,18.30
2022-10-21T12:40:35.907Z,18.40
2022-10-21T12:43:06.171Z,18.40
2022-10-21T12:45:37.975Z,18.50
2022-10-21T12:48:33.042Z,18.70
2022-10-21T12:51:03.402Z,18.80
2022-10-21T12:53:36.285Z,18.80
2022-10-21T12:56:05.241Z,18.90
2022-10-21T12:58:46.932Z,18.80
2022-10-21T13:01:58.863Z,18.70
2022-10-21T13:04:34.478Z,18.60
2022-10-21T13:07:03.083Z,18.60
2022-10-21T13:09:38.890Z,18.60
2022-10-21T13:12:08.254Z,18.70
2022-10-21T13:14:46.855Z,18.80
2022-10-21T13:17:22.249Z,18.90
2022-10-21T13:19:54.021Z,19.00
2022-10-21T13:22:37.059Z,19.10
2022-10-21T13:25:18.862Z,19.00
2022-10-21T13:27:55.281Z,19.10
2022-10-21T13:30:29.658Z,19.10
2022-10-21T13:33:14.167Z,19.20
2022-10-21T13:35:47.441Z,19.30
2022-10-21T13:38:32.622Z,19.40
2022-10-21T13:41:18.121Z,19.30
2022-10-21T13:44:06.486Z,19.10
2022-10-21T13:46:40.704Z,18.90
2022-10-21T13:49:32.846Z,18.80
2022-10-21T13:51:59.518Z,18.60
2022-10-21T13:54:33.861Z,18.60
2022-10-21T13:57:06.635Z,18.70
2022-10-21T13:59:34.823Z,18.90
2022-10-21T14:02:02.065Z,19.00
2022-10-21T14:04:31.237Z,19.00
2022-10-21T14:07:08.993Z,19.00
2022-10-21T14:09:41.821Z,18.90
2022-10-21T14:12:28.965Z,18.90
2022-10-21T14:15:01.359Z,18.90
2022-10-21T14:17:28.361Z,18.80
2022-10-21T14:20:02.900Z,18.80
2022-10-21T14:22:31.456Z,18.70
2022-10-21T14:25:01.877Z,18.70
2022-10-21T14:27:32.370Z,18.70
2022-10-21T14:30:03.027Z,18.60
2022-10-21T14:32:30.345Z,18.50
2022-10-21T14:35:23.658Z,18.50
2022-10-21T14:37:59.447Z,18.40
2022-10-21T14:40:33.868Z,18.30
2022-10-21T14:43:08.582Z,18.20
2022-10-21T14:45:37.810Z,18.10
2022-10-21T14:48:32.041Z,18.10
2022-10-21T14:51:06.843Z,18.10
2022-10-21T14:53:38.350Z,18.20
2022-10-21T14:56:06.846Z,18.20
2022-10-21T14:58:37.557Z,18.30
2022-10-21T15:01:14.378Z,18.20
2022-10-21T15:03:45.048Z,18.20
2022-10-21T15:06:24.015Z,18.30
2022-10-21T15:08:56.908Z,18.30
2022-10-21T15:11:37.202Z,18.20
2022-10-21T15:14:12.973Z,18.30
2022-10-21T15:17:09.045Z,18.30
2022-10-21T15:19:49.125Z,18.20
2022-10-21T15:22:31.677Z,18.20
2022-10-21T15:25:08.804Z,18.20
2022-10-21T15:27:42.626Z,18.20
2022-10-21T15:30:19.593Z,18.30
2022-10-21T15:32:47.510Z,18.30
2022-10-21T15:35:22.576Z,18.30
2022-10-21T15:37:53.734Z,18.20
2022-10-21T15:40:21.869Z,18.20
2022-10-21T15:42:49.204Z,18.10
2022-10-21T15:45:18.798Z,18.00
2022-10-21T15:47:54.712Z,17.90
2022-10-21T15:50:26.720Z,17.80
2022-10-21T15:52:53.790Z,17.80
2022-10-21T15:55:20.445Z,17.70
2022-10-21T15:57:47.194Z,17.60
2022-10-21T16:00:19.074Z,17.60
2022-10-21T16:02:47.408Z,17.50
2022-10-21T16:05:14.956Z,17.40
2022-10-21T16:07:42.011Z,17.30
2022-10-21T16:10:26.878Z,17.10
2022-10-21T16:12:54.420Z,17.00
2022-10-21T16:15:22.281Z,16.90
2022-10-21T16:17:53.381Z,16.80
2022-10-21T16:20:31.074Z,16.70
2022-10-21T16:23:01.965Z,16.60
2022-10-21T16:25:30.440Z,16.50
2022-10-21T16:27:57.110Z,16.40
2022-10-21T16:30:27.993Z,16.30
2022-10-21T16:32:55.189Z,16.30
2022-10-21T16:35:21.936Z,16.10
2022-10-21T16:37:49.160Z,16.00
2022-10-21T16:40:17.838Z,16.00
2022-10-21T16:42:44.502Z,15.90
2022-10-21T16:45:12.002Z,15.80
2022-10-21T16:47:39.037Z,15.80
2022-10-21T16:50:07.783Z,15.70
2022-10-21T16:52:36.615Z,15.70
2022-10-21T16:55:04.469Z,15.60
2022-10-21T16:57:31.116Z,15.60
2022-10-21T16:59:57.833Z,15.50
2022-10-21T17:02:24.496Z,15.50
2022-10-21T17:04:51.185Z,15.40
2022-10-21T17:07:18.059Z,15.40
2022-10-21T17:09:44.725Z,15.40
2022-10-21T17:12:11.597Z,15.30
2022-10-21T17:14:38.557Z,15.30
2022-10-21T17:17:05.307Z,15.20
2022-10-21T17:19:32.007Z,15.20
2022-10-21T17:21:58.937Z,15.10
2022-10-21T17:24:27.809Z,15.00
2022-10-21T17:26:56.092Z,15.00
2022-10-21T17:29:22.940Z,14.90
2022-10-21T17:31:49.660Z,14.90
2022-10-21T17:34:28.821Z,14.80
2022-10-21T17:36:55.805Z,14.70
2022-10-21T17:39:22.586Z,14.70
2022-10-21T17:41:49.880Z,14.60
2022-10-21T17:44:16.631Z,14.70
2022-10-21T17:46:43.401Z,14.60
2022-10-21T17:49:10.402Z,14.60
2022-10-21T17:51:37.062Z,14.60
2022-10-21T17:54:03.868Z,14.60
2022-10-21T17:56:30.633Z,14.60
2022-10-21T17:58:57.396Z,14.60
2022-10-21T18:01:25.327Z,14.50
2022-10-21T18:03:52.683Z,14.50
2022-10-21T18:08:47.028Z,14.40
2022-10-21T18:11:16.609Z,14.30
2022-10-21T18:16:13.866Z,14.20
2022-10-21T18:21:21.374Z,14.20
2022-10-21T18:23:50.969Z,14.20
2022-10-21T18:26:20.827Z,14.10
2022-10-21T18:28:52.543Z,14.10
2022-10-21T18:31:22.020Z,14.10
2022-10-21T18:33:49.401Z,14.10
2022-10-21T18:36:17.421Z,14.10
2022-10-21T18:38:44.193Z,14.10
2022-10-21T18:41:19.971Z,14.10
2022-10-21T18:43:55.820Z,14.10
2022-10-21T18:46:23.251Z,14.10
2022-10-21T18:48:50.554Z,14.10
2022-10-21T18:51:18.997Z,14.00
2022-10-21T18:53:49.872Z,14.00
2022-10-21T18:56:19.229Z,14.00
2022-10-21T18:58:45.937Z,14.00
2022-10-21T19:01:14.930Z,14.00
2022-10-21T19:06:28.725Z,13.90
2022-10-21T19:08:55.497Z,13.90
2022-10-21T19:18:43.523Z,13.80
2022-10-21T19:23:39.722Z,13.70
2022-10-21T19:26:08.905Z,13.70
2022-10-21T19:28:36.335Z,13.60
2022-10-21T19:31:03.640Z,13.60
2022-10-21T19:33:30.980Z,13.60
2022-10-21T19:36:02.015Z,13.60
2022-10-21T19:38:43.399Z,13.50
2022-10-21T19:41:13.462Z,13.50
2022-10-21T19:43:40.364Z,13.50
2022-10-21T19:46:08.399Z,13.50
2022-10-21T19:48:36.672Z,13.50
2022-10-21T19:51:04.469Z,13.40
2022-10-21T19:53:34.072Z,13.40
2022-10-21T19:56:05.221Z,13.40
2022-10-21T19:58:32.961Z,13.40
2022-10-21T20:01:09.372Z,13.40
2022-10-21T20:03:37.466Z,13.50
2022-10-21T20:08:41.915Z,13.50
2022-10-21T20:11:11.943Z,13.60
2022-10-21T20:18:33.536Z,13.60
2022-10-21T20:21:05.573Z,13.60
2022-10-21T20:28:27.320Z,13.70
2022-10-21T20:31:03.113Z,13.70
2022-10-21T20:33:32.492Z,13.70
2022-10-21T20:36:06.890Z,13.70
2022-10-21T20:38:33.971Z,13.70
2022-10-21T20:41:02.959Z,13.60
2022-10-21T20:43:30.191Z,13.70
2022-10-21T20:46:00.792Z,13.70
2022-10-21T20:48:28.659Z,13.70
2022-10-21T20:51:08.692Z,13.70
2022-10-21T20:53:35.904Z,13.60
2022-10-21T20:56:05.687Z,13.60
2022-10-21T20:58:37.015Z,13.60
2022-10-21T21:01:17.938Z,13.50
2022-10-21T21:03:45.664Z,13.50
2022-10-21T21:06:12.928Z,13.50
2022-10-21T21:08:48.899Z,13.50
2022-10-21T21:11:21.159Z,13.40
2022-10-21T21:13:48.066Z,13.50
2022-10-21T21:18:43.489Z,13.40
2022-10-21T21:21:13.241Z,13.50
2022-10-21T21:23:41.334Z,13.50
2022-10-21T21:26:11.187Z,13.50
2022-10-21T21:28:38.226Z,13.50
2022-10-21T21:31:06.421Z,13.50
2022-10-21T21:33:33.979Z,13.40
2022-10-21T21:38:28.725Z,13.40
2022-10-21T21:40:55.776Z,13.40
2022-10-21T21:45:49.654Z,13.30
2022-10-21T21:50:49.095Z,13.30
2022-10-21T21:53:17.623Z,13.30
2022-10-21T21:58:11.452Z,13.30
2022-10-21T22:00:41.784Z,13.30
2022-10-21T22:03:08.448Z,13.30
2022-10-21T22:05:38.259Z,13.30
2022-10-21T22:10:33.636Z,13.20
2022-10-21T22:13:00.283Z,13.20
2022-10-21T22:15:47.125Z,13.20
2022-10-21T22:18:14.289Z,13.20
2022-10-21T22:20:41.058Z,13.10
2022-10-21T22:25:35.200Z,13.00
2022-10-21T22:28:02.082Z,13.00
2022-10-21T22:30:28.838Z,12.90
2022-10-21T22:32:55.481Z,12.90
2022-10-21T22:37:49.216Z,12.90
2022-10-21T22:40:15.940Z,12.90
2022-10-21T22:47:42.068Z,12.80
2022-10-21T22:50:09.303Z,12.80
2022-10-21T22:52:36.050Z,12.80
2022-10-21T22:57:29.758Z,12.90
2022-10-21T22:59:56.413Z,12.90
2022-10-21T23:02:23.072Z,12.90
2022-10-21T23:04:49.804Z,13.00
2022-10-21T23:07:16.450Z,13.00
2022-10-21T23:09:43.104Z,13.00
2022-10-21T23:12:09.754Z,13.10
2022-10-21T23:19:30.900Z,13.30
2022-10-21T23:24:24.634Z,13.30
2022-10-21T23:26:51.325Z,13.30
2022-10-21T23:29:18.046Z,13.40
2022-10-21T23:31:44.723Z,13.40
2022-10-21T23:39:05.876Z,13.40
2022-10-21T23:43:59.587Z,13.50
2022-10-21T23:48:58.015Z,13.50
2022-10-21T23:51:24.707Z,13.50
2022-10-21T23:53:51.396Z,13.50
2022-10-21T23:56:18.174Z,13.60
2022-10-21T23:58:44.890Z,13.60
